sensor_id;sensor_type;location;lat;lon;timestamp;P1;durP1;ratioP1;P2;durP2;ratioP2
19049;SDS011;9657;45.940;12.840;2023-02-13T00:00:38;27.73;;;19.07;;
19049;SDS011;9657;45.940;12.840;2023-02-13T00:03:05;32.73;;;20.03;;
19049;SDS011;9657;45.940;12.840;2023-02-13T00:05:32;25.80;;;19.60;;
19049;SDS011;9657;45.940;12.840;2023-02-13T00:07:59;26.27;;;18.70;;
19049;SDS011;9657;45.940;12.840;2023-02-13T00:10:27;29.00;;;18.63;;
19049;SDS011;9657;45.940;12.840;2023-02-13T00:12:54;27.30;;;19.47;;
19049;SDS011;9657;45.940;12.840;2023-02-13T00:15:21;25.73;;;18.87;;
19049;SDS011;9657;45.940;12.840;2023-02-13T00:17:48;27.43;;;19.10;;
19049;SDS011;9657;45.940;12.840;2023-02-13T00:20:15;28.30;;;19.70;;
19049;SDS011;9657;45.940;12.840;2023-02-13T00:22:42;28.70;;;20.03;;
19049;SDS011;9657;45.940;12.840;2023-02-13T00:25:09;25.07;;;19.00;;
19049;SDS011;9657;45.940;12.840;2023-02-13T00:27:38;24.57;;;19.37;;
19049;SDS011;9657;45.940;12.840;2023-02-13T00:30:05;23.93;;;17.43;;
19049;SDS011;9657;45.940;12.840;2023-02-13T00:32:33;26.57;;;19.03;;
19049;SDS011;9657;45.940;12.840;2023-02-13T00:35:00;22.97;;;17.97;;
19049;SDS011;9657;45.940;12.840;2023-02-13T00:37:27;28.77;;;20.20;;
19049;SDS011;9657;45.940;12.840;2023-02-13T00:39:54;26.40;;;18.40;;
19049;SDS011;9657;45.940;12.840;2023-02-13T00:42:21;27.50;;;19.97;;
19049;SDS011;9657;45.940;12.840;2023-02-13T00:44:52;26.50;;;18.73;;
19049;SDS011;9657;45.940;12.840;2023-02-13T00:47:19;22.63;;;17.30;;
19049;SDS011;9657;45.940;12.840;2023-02-13T00:49:46;25.57;;;19.37;;
19049;SDS011;9657;45.940;12.840;2023-02-13T00:52:13;26.67;;;19.40;;
19049;SDS011;9657;45.940;12.840;2023-02-13T00:54:40;26.97;;;19.27;;
19049;SDS011;9657;45.940;12.840;2023-02-13T00:57:07;22.30;;;17.83;;
19049;SDS011;9657;45.940;12.840;2023-02-13T00:59:34;25.10;;;18.97;;
19049;SDS011;9657;45.940;12.840;2023-02-13T01:02:03;26.77;;;18.40;;
19049;SDS011;9657;45.940;12.840;2023-02-13T01:04:30;24.93;;;17.67;;
19049;SDS011;9657;45.940;12.840;2023-02-13T01:06:57;23.23;;;18.73;;
19049;SDS011;9657;45.940;12.840;2023-02-13T01:09:24;24.37;;;17.93;;
19049;SDS011;9657;45.940;12.840;2023-02-13T01:11:51;23.47;;;17.40;;
19049;SDS011;9657;45.940;12.840;2023-02-13T01:14:18;25.17;;;18.60;;
19049;SDS011;9657;45.940;12.840;2023-02-13T01:16:45;26.83;;;18.70;;
19049;SDS011;9657;45.940;12.840;2023-02-13T01:19:13;27.27;;;19.10;;
19049;SDS011;9657;45.940;12.840;2023-02-13T01:21:41;23.03;;;18.33;;
19049;SDS011;9657;45.940;12.840;2023-02-13T01:24:08;24.43;;;19.27;;
19049;SDS011;9657;45.940;12.840;2023-02-13T01:26:35;24.13;;;18.27;;
19049;SDS011;9657;45.940;12.840;2023-02-13T01:29:03;23.00;;;17.17;;
19049;SDS011;9657;45.940;12.840;2023-02-13T01:31:30;22.50;;;17.57;;
19049;SDS011;9657;45.940;12.840;2023-02-13T01:33:57;22.93;;;17.40;;
19049;SDS011;9657;45.940;12.840;2023-02-13T01:36:26;25.57;;;18.07;;
19049;SDS011;9657;45.940;12.840;2023-02-13T01:38:53;26.37;;;18.30;;
19049;SDS011;9657;45.940;12.840;2023-02-13T01:41:21;23.80;;;17.03;;
19049;SDS011;9657;45.940;12.840;2023-02-13T01:43:49;23.23;;;16.70;;
19049;SDS011;9657;45.940;12.840;2023-02-13T01:46:20;21.20;;;15.97;;
19049;SDS011;9657;45.940;12.840;2023-02-13T01:48:50;23.80;;;17.23;;
19049;SDS011;9657;45.940;12.840;2023-02-13T01:51:20;22.87;;;16.60;;
19049;SDS011;9657;45.940;12.840;2023-02-13T01:53:54;21.53;;;16.13;;
19049;SDS011;9657;45.940;12.840;2023-02-13T01:56:24;23.13;;;16.67;;
19049;SDS011;9657;45.940;12.840;2023-02-13T01:58:55;22.80;;;16.13;;
19049;SDS011;9657;45.940;12.840;2023-02-13T02:04:03;23.50;;;15.83;;
19049;SDS011;9657;45.940;12.840;2023-02-13T02:06:35;22.10;;;16.63;;
19049;SDS011;9657;45.940;12.840;2023-02-13T02:09:07;23.20;;;16.13;;
19049;SDS011;9657;45.940;12.840;2023-02-13T02:11:39;21.30;;;16.30;;
19049;SDS011;9657;45.940;12.840;2023-02-13T02:14:12;20.70;;;14.30;;
19049;SDS011;9657;45.940;12.840;2023-02-13T02:16:39;21.37;;;14.90;;
19049;SDS011;9657;45.940;12.840;2023-02-13T02:19:08;22.37;;;15.77;;
19049;SDS011;9657;45.940;12.840;2023-02-13T02:21:45;20.87;;;15.83;;
19049;SDS011;9657;45.940;12.840;2023-02-13T02:27:28;18.33;;;15.00;;
19049;SDS011;9657;45.940;12.840;2023-02-13T02:30:25;20.43;;;15.53;;
19049;SDS011;9657;45.940;12.840;2023-02-13T02:33:22;18.17;;;15.37;;
19049;SDS011;9657;45.940;12.840;2023-02-13T02:35:59;20.00;;;16.07;;
19049;SDS011;9657;45.940;12.840;2023-02-13T02:38:40;20.20;;;15.20;;
19049;SDS011;9657;45.940;12.840;2023-02-13T02:41:19;18.90;;;14.57;;
19049;SDS011;9657;45.940;12.840;2023-02-13T02:44:22;20.33;;;15.07;;
19049;SDS011;9657;45.940;12.840;2023-02-13T02:46:58;18.97;;;14.87;;
19049;SDS011;9657;45.940;12.840;2023-02-13T02:49:58;15.87;;;14.13;;
19049;SDS011;9657;45.940;12.840;2023-02-13T02:52:39;19.57;;;15.20;;
19049;SDS011;9657;45.940;12.840;2023-02-13T02:55:24;17.00;;;14.20;;
19049;SDS011;9657;45.940;12.840;2023-02-13T02:57:59;16.70;;;14.03;;
19049;SDS011;9657;45.940;12.840;2023-02-13T03:00:48;18.40;;;14.70;;
19049;SDS011;9657;45.940;12.840;2023-02-13T03:03:35;17.83;;;12.80;;
19049;SDS011;9657;45.940;12.840;2023-02-13T03:06:23;17.70;;;12.90;;
19049;SDS011;9657;45.940;12.840;2023-02-13T03:08:53;15.87;;;12.80;;
19049;SDS011;9657;45.940;12.840;2023-02-13T03:11:40;19.50;;;13.53;;
19049;SDS011;9657;45.940;12.840;2023-02-13T03:14:26;18.90;;;13.37;;
19049;SDS011;9657;45.940;12.840;2023-02-13T03:16:53;15.97;;;12.70;;
19049;SDS011;9657;45.940;12.840;2023-02-13T03:19:47;17.37;;;12.50;;
19049;SDS011;9657;45.940;12.840;2023-02-13T03:22:44;14.97;;;11.43;;
19049;SDS011;9657;45.940;12.840;2023-02-13T03:25:25;17.33;;;12.10;;
19049;SDS011;9657;45.940;12.840;2023-02-13T03:27:59;16.77;;;11.90;;
19049;SDS011;9657;45.940;12.840;2023-02-13T03:30:51;17.43;;;11.80;;
19049;SDS011;9657;45.940;12.840;2023-02-13T03:33:29;15.07;;;11.07;;
19049;SDS011;9657;45.940;12.840;2023-02-13T03:36:08;15.33;;;11.73;;
19049;SDS011;9657;45.940;12.840;2023-02-13T03:39:02;16.00;;;11.33;;
19049;SDS011;9657;45.940;12.840;2023-02-13T03:41:35;16.53;;;12.07;;
19049;SDS011;9657;45.940;12.840;2023-02-13T03:44:09;15.33;;;11.93;;
19049;SDS011;9657;45.940;12.840;2023-02-13T03:46:42;16.67;;;11.93;;
19049;SDS011;9657;45.940;12.840;2023-02-13T03:49:12;16.53;;;11.93;;
19049;SDS011;9657;45.940;12.840;2023-02-13T03:52:04;14.80;;;10.93;;
19049;SDS011;9657;45.940;12.840;2023-02-13T03:54:37;15.93;;;11.80;;
19049;SDS011;9657;45.940;12.840;2023-02-13T03:57:26;13.57;;;10.80;;
19049;SDS011;9657;45.940;12.840;2023-02-13T04:02:46;13.83;;;10.57;;
19049;SDS011;9657;45.940;12.840;2023-02-13T04:05:19;15.43;;;11.07;;
19049;SDS011;9657;45.940;12.840;2023-02-13T04:07:49;15.40;;;11.27;;
19049;SDS011;9657;45.940;12.840;2023-02-13T04:10:18;12.40;;;9.47;;
19049;SDS011;9657;45.940;12.840;2023-02-13T04:12:48;12.67;;;9.83;;
19049;SDS011;9657;45.940;12.840;2023-02-13T04:15:19;11.40;;;9.97;;
19049;SDS011;9657;45.940;12.840;2023-02-13T04:17:52;12.10;;;9.43;;
19049;SDS011;9657;45.940;12.840;2023-02-13T04:20:25;15.93;;;11.07;;
19049;SDS011;9657;45.940;12.840;2023-02-13T04:22:53;13.53;;;10.27;;
19049;SDS011;9657;45.940;12.840;2023-02-13T04:25:21;11.23;;;8.80;;
19049;SDS011;9657;45.940;12.840;2023-02-13T04:27:48;11.40;;;9.10;;
19049;SDS011;9657;45.940;12.840;2023-02-13T04:30:15;13.80;;;9.87;;
19049;SDS011;9657;45.940;12.840;2023-02-13T04:32:43;12.67;;;9.40;;
19049;SDS011;9657;45.940;12.840;2023-02-13T04:35:09;14.20;;;9.20;;
19049;SDS011;9657;45.940;12.840;2023-02-13T04:37:37;12.17;;;9.47;;
19049;SDS011;9657;45.940;12.840;2023-02-13T04:40:05;11.97;;;9.50;;
19049;SDS011;9657;45.940;12.840;2023-02-13T04:42:34;13.90;;;9.03;;
19049;SDS011;9657;45.940;12.840;2023-02-13T04:45:01;10.80;;;8.77;;
19049;SDS011;9657;45.940;12.840;2023-02-13T04:47:29;14.37;;;8.60;;
19049;SDS011;9657;45.940;12.840;2023-02-13T04:49:56;11.53;;;8.07;;
19049;SDS011;9657;45.940;12.840;2023-02-13T04:52:23;14.07;;;9.87;;
19049;SDS011;9657;45.940;12.840;2023-02-13T04:54:50;13.37;;;9.87;;
19049;SDS011;9657;45.940;12.840;2023-02-13T04:57:17;11.50;;;8.97;;
19049;SDS011;9657;45.940;12.840;2023-02-13T04:59:45;11.57;;;9.37;;
19049;SDS011;9657;45.940;12.840;2023-02-13T05:02:12;11.00;;;7.87;;
19049;SDS011;9657;45.940;12.840;2023-02-13T05:04:39;14.77;;;9.10;;
19049;SDS011;9657;45.940;12.840;2023-02-13T05:07:06;12.60;;;8.30;;
19049;SDS011;9657;45.940;12.840;2023-02-13T05:09:33;11.60;;;9.43;;
19049;SDS011;9657;45.940;12.840;2023-02-13T05:12:00;11.13;;;8.30;;
19049;SDS011;9657;45.940;12.840;2023-02-13T05:14:27;11.83;;;8.47;;
19049;SDS011;9657;45.940;12.840;2023-02-13T05:16:55;12.47;;;8.53;;
19049;SDS011;9657;45.940;12.840;2023-02-13T05:19:22;11.07;;;8.63;;
19049;SDS011;9657;45.940;12.840;2023-02-13T05:21:49;12.73;;;8.53;;
19049;SDS011;9657;45.940;12.840;2023-02-13T05:24:34;13.03;;;8.93;;
19049;SDS011;9657;45.940;12.840;2023-02-13T05:27:01;11.53;;;8.73;;
19049;SDS011;9657;45.940;12.840;2023-02-13T05:29:28;11.87;;;8.73;;
19049;SDS011;9657;45.940;12.840;2023-02-13T05:31:56;8.97;;;8.07;;
19049;SDS011;9657;45.940;12.840;2023-02-13T05:34:24;11.63;;;8.30;;
19049;SDS011;9657;45.940;12.840;2023-02-13T05:36:52;10.80;;;7.83;;
19049;SDS011;9657;45.940;12.840;2023-02-13T05:39:20;11.43;;;8.10;;
19049;SDS011;9657;45.940;12.840;2023-02-13T05:41:47;10.50;;;7.80;;
19049;SDS011;9657;45.940;12.840;2023-02-13T05:44:15;9.20;;;7.40;;
19049;SDS011;9657;45.940;12.840;2023-02-13T05:46:42;10.27;;;7.60;;
19049;SDS011;9657;45.940;12.840;2023-02-13T05:49:11;10.17;;;7.57;;
19049;SDS011;9657;45.940;12.840;2023-02-13T05:51:39;10.57;;;7.87;;
19049;SDS011;9657;45.940;12.840;2023-02-13T05:54:07;11.77;;;7.50;;
19049;SDS011;9657;45.940;12.840;2023-02-13T05:56:34;10.80;;;8.47;;
19049;SDS011;9657;45.940;12.840;2023-02-13T05:59:01;9.33;;;7.13;;
19049;SDS011;9657;45.940;12.840;2023-02-13T06:01:28;13.77;;;8.13;;
19049;SDS011;9657;45.940;12.840;2023-02-13T06:03:55;11.60;;;8.17;;
19049;SDS011;9657;45.940;12.840;2023-02-13T06:06:24;11.73;;;7.17;;
19049;SDS011;9657;45.940;12.840;2023-02-13T06:08:51;11.17;;;8.30;;
19049;SDS011;9657;45.940;12.840;2023-02-13T06:11:18;9.80;;;7.50;;
19049;SDS011;9657;45.940;12.840;2023-02-13T06:13:46;10.97;;;7.63;;
19049;SDS011;9657;45.940;12.840;2023-02-13T06:16:13;9.03;;;6.87;;
19049;SDS011;9657;45.940;12.840;2023-02-13T06:18:40;10.67;;;8.13;;
19049;SDS011;9657;45.940;12.840;2023-02-13T06:21:07;12.23;;;6.63;;
19049;SDS011;9657;45.940;12.840;2023-02-13T06:23:36;9.83;;;7.37;;
19049;SDS011;9657;45.940;12.840;2023-02-13T06:26:03;9.87;;;7.17;;
19049;SDS011;9657;45.940;12.840;2023-02-13T06:28:30;10.60;;;7.47;;
19049;SDS011;9657;45.940;12.840;2023-02-13T06:30:57;9.40;;;6.83;;
19049;SDS011;9657;45.940;12.840;2023-02-13T06:33:24;11.23;;;8.20;;
19049;SDS011;9657;45.940;12.840;2023-02-13T06:35:51;7.97;;;7.10;;
19049;SDS011;9657;45.940;12.840;2023-02-13T06:38:18;11.90;;;8.03;;
19049;SDS011;9657;45.940;12.840;2023-02-13T06:40:47;10.83;;;6.83;;
19049;SDS011;9657;45.940;12.840;2023-02-13T06:43:15;9.90;;;8.00;;
19049;SDS011;9657;45.940;12.840;2023-02-13T06:45:43;10.60;;;7.93;;
19049;SDS011;9657;45.940;12.840;2023-02-13T06:48:11;9.73;;;7.40;;
19049;SDS011;9657;45.940;12.840;2023-02-13T06:50:38;9.10;;;6.90;;
19049;SDS011;9657;45.940;12.840;2023-02-13T06:53:05;10.67;;;7.63;;
19049;SDS011;9657;45.940;12.840;2023-02-13T06:55:32;10.00;;;7.10;;
19049;SDS011;9657;45.940;12.840;2023-02-13T06:58:00;10.73;;;7.23;;
19049;SDS011;9657;45.940;12.840;2023-02-13T07:00:27;10.10;;;7.53;;
19049;SDS011;9657;45.940;12.840;2023-02-13T07:02:59;9.83;;;7.33;;
19049;SDS011;9657;45.940;12.840;2023-02-13T07:05:28;9.77;;;7.20;;
19049;SDS011;9657;45.940;12.840;2023-02-13T07:07:55;9.63;;;7.60;;
19049;SDS011;9657;45.940;12.840;2023-02-13T07:10:22;9.23;;;7.27;;
19049;SDS011;9657;45.940;12.840;2023-02-13T07:12:51;11.03;;;7.57;;
19049;SDS011;9657;45.940;12.840;2023-02-13T07:15:19;10.67;;;7.43;;
19049;SDS011;9657;45.940;12.840;2023-02-13T07:17:46;11.50;;;7.50;;
19049;SDS011;9657;45.940;12.840;2023-02-13T07:20:13;9.53;;;7.13;;
19049;SDS011;9657;45.940;12.840;2023-02-13T07:22:40;9.10;;;7.57;;
19049;SDS011;9657;45.940;12.840;2023-02-13T07:25:07;10.83;;;8.17;;
19049;SDS011;9657;45.940;12.840;2023-02-13T07:27:34;9.00;;;7.40;;
19049;SDS011;9657;45.940;12.840;2023-02-13T07:30:01;11.37;;;7.23;;
19049;SDS011;9657;45.940;12.840;2023-02-13T07:32:30;10.20;;;7.07;;
19049;SDS011;9657;45.940;12.840;2023-02-13T07:34:57;10.80;;;7.97;;
19049;SDS011;9657;45.940;12.840;2023-02-13T07:37:25;11.20;;;7.53;;
19049;SDS011;9657;45.940;12.840;2023-02-13T07:39:52;11.63;;;7.23;;
19049;SDS011;9657;45.940;12.840;2023-02-13T07:42:19;12.30;;;7.33;;
19049;SDS011;9657;45.940;12.840;2023-02-13T07:44:46;9.03;;;6.47;;
19049;SDS011;9657;45.940;12.840;2023-02-13T07:47:13;12.93;;;7.63;;
19049;SDS011;9657;45.940;12.840;2023-02-13T07:49:42;12.53;;;7.33;;
19049;SDS011;9657;45.940;12.840;2023-02-13T07:52:09;10.23;;;7.67;;
19049;SDS011;9657;45.940;12.840;2023-02-13T07:54:36;11.73;;;8.17;;
19049;SDS011;9657;45.940;12.840;2023-02-13T07:57:11;10.37;;;6.60;;
19049;SDS011;9657;45.940;12.840;2023-02-13T07:59:38;11.83;;;8.10;;
19049;SDS011;9657;45.940;12.840;2023-02-13T08:02:05;10.40;;;8.07;;
19049;SDS011;9657;45.940;12.840;2023-02-13T08:04:37;11.07;;;7.80;;
19049;SDS011;9657;45.940;12.840;2023-02-13T08:07:05;11.00;;;7.63;;
19049;SDS011;9657;45.940;12.840;2023-02-13T08:09:32;12.50;;;7.40;;
19049;SDS011;9657;45.940;12.840;2023-02-13T08:12:16;10.23;;;7.00;;
19049;SDS011;9657;45.940;12.840;2023-02-13T08:14:43;14.20;;;8.00;;
19049;SDS011;9657;45.940;12.840;2023-02-13T08:17:10;10.60;;;7.43;;
19049;SDS011;9657;45.940;12.840;2023-02-13T08:19:37;9.97;;;7.33;;
19049;SDS011;9657;45.940;12.840;2023-02-13T08:22:06;8.17;;;6.47;;
19049;SDS011;9657;45.940;12.840;2023-02-13T08:24:33;9.53;;;5.77;;
19049;SDS011;9657;45.940;12.840;2023-02-13T08:27:00;10.47;;;7.47;;
19049;SDS011;9657;45.940;12.840;2023-02-13T08:29:27;9.30;;;6.87;;
19049;SDS011;9657;45.940;12.840;2023-02-13T08:31:54;10.03;;;6.90;;
19049;SDS011;9657;45.940;12.840;2023-02-13T08:34:21;10.10;;;7.13;;
19049;SDS011;9657;45.940;12.840;2023-02-13T08:36:48;8.10;;;6.50;;
19049;SDS011;9657;45.940;12.840;2023-02-13T08:39:16;9.50;;;6.67;;
19049;SDS011;9657;45.940;12.840;2023-02-13T08:41:43;9.00;;;6.63;;
19049;SDS011;9657;45.940;12.840;2023-02-13T08:44:11;8.33;;;5.97;;
19049;SDS011;9657;45.940;12.840;2023-02-13T08:46:38;8.33;;;6.90;;
19049;SDS011;9657;45.940;12.840;2023-02-13T08:49:05;10.10;;;6.37;;
19049;SDS011;9657;45.940;12.840;2023-02-13T08:51:32;9.60;;;6.37;;
19049;SDS011;9657;45.940;12.840;2023-02-13T08:53:59;8.17;;;6.17;;
19049;SDS011;9657;45.940;12.840;2023-02-13T08:56:27;8.13;;;6.00;;
19049;SDS011;9657;45.940;12.840;2023-02-13T08:58:54;9.60;;;6.90;;
19049;SDS011;9657;45.940;12.840;2023-02-13T09:01:21;11.37;;;7.83;;
19049;SDS011;9657;45.940;12.840;2023-02-13T09:03:49;8.60;;;7.03;;
19049;SDS011;9657;45.940;12.840;2023-02-13T09:06:16;10.80;;;6.77;;
19049;SDS011;9657;45.940;12.840;2023-02-13T09:08:43;8.50;;;6.53;;
19049;SDS011;9657;45.940;12.840;2023-02-13T09:11:10;8.90;;;6.27;;
19049;SDS011;9657;45.940;12.840;2023-02-13T09:13:39;8.03;;;5.80;;
19049;SDS011;9657;45.940;12.840;2023-02-13T09:16:06;10.00;;;7.03;;
19049;SDS011;9657;45.940;12.840;2023-02-13T09:18:34;7.80;;;6.10;;
19049;SDS011;9657;45.940;12.840;2023-02-13T09:21:01;10.77;;;7.00;;
19049;SDS011;9657;45.940;12.840;2023-02-13T09:23:30;6.67;;;5.87;;
19049;SDS011;9657;45.940;12.840;2023-02-13T09:25:58;9.73;;;6.57;;
19049;SDS011;9657;45.940;12.840;2023-02-13T09:28:26;8.90;;;6.37;;
19049;SDS011;9657;45.940;12.840;2023-02-13T09:30:55;9.93;;;6.70;;
19049;SDS011;9657;45.940;12.840;2023-02-13T09:33:22;11.33;;;6.57;;
19049;SDS011;9657;45.940;12.840;2023-02-13T09:35:49;9.63;;;6.93;;
19049;SDS011;9657;45.940;12.840;2023-02-13T09:38:16;10.00;;;6.77;;
19049;SDS011;9657;45.940;12.840;2023-02-13T09:40:44;8.17;;;6.67;;
19049;SDS011;9657;45.940;12.840;2023-02-13T09:43:16;9.60;;;6.90;;
19049;SDS011;9657;45.940;12.840;2023-02-13T09:45:56;10.10;;;7.37;;
19049;SDS011;9657;45.940;12.840;2023-02-13T09:48:27;8.27;;;6.43;;
19049;SDS011;9657;45.940;12.840;2023-02-13T09:50:56;9.43;;;6.10;;
19049;SDS011;9657;45.940;12.840;2023-02-13T09:53:25;8.13;;;5.80;;
19049;SDS011;9657;45.940;12.840;2023-02-13T09:55:57;8.17;;;6.13;;
19049;SDS011;9657;45.940;12.840;2023-02-13T09:58:32;9.57;;;6.37;;
19049;SDS011;9657;45.940;12.840;2023-02-13T10:01:20;8.43;;;6.10;;
19049;SDS011;9657;45.940;12.840;2023-02-13T10:03:55;7.03;;;5.80;;
19049;SDS011;9657;45.940;12.840;2023-02-13T10:06:46;8.83;;;6.70;;
19049;SDS011;9657;45.940;12.840;2023-02-13T10:09:23;9.63;;;7.03;;
19049;SDS011;9657;45.940;12.840;2023-02-13T10:12:02;7.77;;;5.70;;
19049;SDS011;9657;45.940;12.840;2023-02-13T10:14:41;8.37;;;6.30;;
19049;SDS011;9657;45.940;12.840;2023-02-13T10:17:14;8.17;;;6.70;;
19049;SDS011;9657;45.940;12.840;2023-02-13T10:19:47;8.30;;;6.40;;
19049;SDS011;9657;45.940;12.840;2023-02-13T10:22:24;8.20;;;6.93;;
19049;SDS011;9657;45.940;12.840;2023-02-13T10:24:55;9.53;;;6.70;;
19049;SDS011;9657;45.940;12.840;2023-02-13T10:27:27;8.10;;;6.23;;
19049;SDS011;9657;45.940;12.840;2023-02-13T10:29:59;7.20;;;6.40;;
19049;SDS011;9657;45.940;12.840;2023-02-13T10:32:33;8.83;;;6.40;;
19049;SDS011;9657;45.940;12.840;2023-02-13T10:35:13;7.63;;;6.63;;
19049;SDS011;9657;45.940;12.840;2023-02-13T10:37:48;8.70;;;5.53;;
19049;SDS011;9657;45.940;12.840;2023-02-13T10:40:19;8.13;;;5.93;;
19049;SDS011;9657;45.940;12.840;2023-02-13T10:42:49;9.10;;;5.90;;
19049;SDS011;9657;45.940;12.840;2023-02-13T10:45:25;8.77;;;5.87;;
19049;SDS011;9657;45.940;12.840;2023-02-13T10:48:11;9.73;;;5.87;;
19049;SDS011;9657;45.940;12.840;2023-02-13T10:50:44;8.87;;;6.40;;
19049;SDS011;9657;45.940;12.840;2023-02-13T10:53:22;7.57;;;6.13;;
19049;SDS011;9657;45.940;12.840;2023-02-13T10:56:07;7.97;;;5.20;;
19049;SDS011;9657;45.940;12.840;2023-02-13T10:58:56;7.30;;;5.70;;
19049;SDS011;9657;45.940;12.840;2023-02-13T11:01:33;7.37;;;5.60;;
19049;SDS011;9657;45.940;12.840;2023-02-13T11:04:07;9.17;;;5.87;;
19049;SDS011;9657;45.940;12.840;2023-02-13T11:06:37;7.40;;;5.90;;
19049;SDS011;9657;45.940;12.840;2023-02-13T11:09:07;8.00;;;5.87;;
19049;SDS011;9657;45.940;12.840;2023-02-13T11:11:38;8.63;;;5.93;;
19049;SDS011;9657;45.940;12.840;2023-02-13T11:14:10;7.93;;;5.97;;
19049;SDS011;9657;45.940;12.840;2023-02-13T11:16:40;9.00;;;5.40;;
19049;SDS011;9657;45.940;12.840;2023-02-13T11:19:16;7.47;;;5.97;;
19049;SDS011;9657;45.940;12.840;2023-02-13T11:21:47;8.53;;;5.73;;
19049;SDS011;9657;45.940;12.840;2023-02-13T11:24:20;10.03;;;6.60;;
19049;SDS011;9657;45.940;12.840;2023-02-13T11:26:52;7.30;;;5.50;;
19049;SDS011;9657;45.940;12.840;2023-02-13T11:29:23;9.97;;;5.53;;
19049;SDS011;9657;45.940;12.840;2023-02-13T11:32:06;6.67;;;5.40;;
19049;SDS011;9657;45.940;12.840;2023-02-13T11:34:44;8.27;;;5.67;;
19049;SDS011;9657;45.940;12.840;2023-02-13T11:37:16;6.83;;;5.90;;
19049;SDS011;9657;45.940;12.840;2023-02-13T11:39:49;8.50;;;5.90;;
19049;SDS011;9657;45.940;12.840;2023-02-13T11:42:19;6.17;;;5.57;;
19049;SDS011;9657;45.940;12.840;2023-02-13T11:44:51;7.63;;;5.57;;
19049;SDS011;9657;45.940;12.840;2023-02-13T11:47:33;7.47;;;5.20;;
19049;SDS011;9657;45.940;12.840;2023-02-13T11:50:04;7.27;;;6.10;;
19049;SDS011;9657;45.940;12.840;2023-02-13T11:52:50;7.77;;;5.53;;
19049;SDS011;9657;45.940;12.840;2023-02-13T11:55:25;8.07;;;5.33;;
19049;SDS011;9657;45.940;12.840;2023-02-13T11:57:55;8.67;;;5.90;;
19049;SDS011;9657;45.940;12.840;2023-02-13T12:00:26;7.10;;;6.13;;
19049;SDS011;9657;45.940;12.840;2023-02-13T12:02:56;7.87;;;5.83;;
19049;SDS011;9657;45.940;12.840;2023-02-13T12:05:25;7.90;;;5.60;;
19049;SDS011;9657;45.940;12.840;2023-02-13T12:07:54;7.57;;;5.57;;
19049;SDS011;9657;45.940;12.840;2023-02-13T12:10:25;6.93;;;5.73;;
19049;SDS011;9657;45.940;12.840;2023-02-13T12:12:53;6.63;;;5.20;;
19049;SDS011;9657;45.940;12.840;2023-02-13T12:15:24;6.60;;;5.67;;
19049;SDS011;9657;45.940;12.840;2023-02-13T12:17:57;8.40;;;5.73;;
19049;SDS011;9657;45.940;12.840;2023-02-13T12:20:35;7.23;;;5.30;;
19049;SDS011;9657;45.940;12.840;2023-02-13T12:23:13;6.70;;;4.70;;
19049;SDS011;9657;45.940;12.840;2023-02-13T12:26:08;7.50;;;5.63;;
19049;SDS011;9657;45.940;12.840;2023-02-13T12:28:45;7.50;;;5.83;;
19049;SDS011;9657;45.940;12.840;2023-02-13T12:31:33;7.10;;;5.60;;
19049;SDS011;9657;45.940;12.840;2023-02-13T12:37:45;7.20;;;5.50;;
19049;SDS011;9657;45.940;12.840;2023-02-13T12:40:27;6.33;;;5.50;;
19049;SDS011;9657;45.940;12.840;2023-02-13T12:43:08;6.53;;;5.27;;
19049;SDS011;9657;45.940;12.840;2023-02-13T12:45:52;8.17;;;5.67;;
19049;SDS011;9657;45.940;12.840;2023-02-13T12:48:26;9.93;;;6.17;;
19049;SDS011;9657;45.940;12.840;2023-02-13T12:51:06;7.77;;;6.13;;
19049;SDS011;9657;45.940;12.840;2023-02-13T12:53:57;8.33;;;5.50;;
19049;SDS011;9657;45.940;12.840;2023-02-13T12:56:36;6.77;;;5.73;;
19049;SDS011;9657;45.940;12.840;2023-02-13T12:59:13;6.87;;;5.50;;
19049;SDS011;9657;45.940;12.840;2023-02-13T13:04:41;9.03;;;6.00;;
19049;SDS011;9657;45.940;12.840;2023-02-13T13:07:24;8.03;;;6.07;;
19049;SDS011;9657;45.940;12.840;2023-02-13T13:13:14;10.70;;;5.93;;
19049;SDS011;9657;45.940;12.840;2023-02-13T13:15:54;7.70;;;5.43;;
19049;SDS011;9657;45.940;12.840;2023-02-13T13:18:31;9.03;;;6.10;;
19049;SDS011;9657;45.940;12.840;2023-02-13T13:21:13;8.13;;;6.17;;
19049;SDS011;9657;45.940;12.840;2023-02-13T13:23:48;7.67;;;6.43;;
19049;SDS011;9657;45.940;12.840;2023-02-13T13:26:24;8.53;;;6.30;;
19049;SDS011;9657;45.940;12.840;2023-02-13T13:29:02;9.17;;;6.90;;
19049;SDS011;9657;45.940;12.840;2023-02-13T13:31:36;8.07;;;6.53;;
19049;SDS011;9657;45.940;12.840;2023-02-13T13:34:05;9.03;;;5.87;;
19049;SDS011;9657;45.940;12.840;2023-02-13T13:36:39;7.90;;;6.90;;
19049;SDS011;9657;45.940;12.840;2023-02-13T13:39:14;8.50;;;6.70;;
19049;SDS011;9657;45.940;12.840;2023-02-13T13:41:51;10.33;;;6.33;;
19049;SDS011;9657;45.940;12.840;2023-02-13T13:44:34;7.43;;;5.53;;
19049;SDS011;9657;45.940;12.840;2023-02-13T13:47:15;8.67;;;6.20;;
19049;SDS011;9657;45.940;12.840;2023-02-13T13:49:54;8.73;;;6.33;;
19049;SDS011;9657;45.940;12.840;2023-02-13T13:52:23;8.20;;;6.13;;
19049;SDS011;9657;45.940;12.840;2023-02-13T13:54:52;10.77;;;6.33;;
19049;SDS011;9657;45.940;12.840;2023-02-13T13:57:21;8.33;;;6.20;;
19049;SDS011;9657;45.940;12.840;2023-02-13T14:02:49;8.40;;;5.67;;
19049;SDS011;9657;45.940;12.840;2023-02-13T14:05:18;7.07;;;5.83;;
19049;SDS011;9657;45.940;12.840;2023-02-13T14:07:50;8.60;;;6.27;;
19049;SDS011;9657;45.940;12.840;2023-02-13T14:13:29;8.70;;;6.70;;
19049;SDS011;9657;45.940;12.840;2023-02-13T14:15:58;9.43;;;6.80;;
19049;SDS011;9657;45.940;12.840;2023-02-13T14:18:26;7.57;;;6.07;;
19049;SDS011;9657;45.940;12.840;2023-02-13T14:20:55;8.70;;;6.83;;
19049;SDS011;9657;45.940;12.840;2023-02-13T14:23:26;8.40;;;6.40;;
19049;SDS011;9657;45.940;12.840;2023-02-13T14:26:09;8.40;;;6.77;;
19049;SDS011;9657;45.940;12.840;2023-02-13T14:28:58;9.67;;;7.07;;
19049;SDS011;9657;45.940;12.840;2023-02-13T14:31:30;7.63;;;6.10;;
19049;SDS011;9657;45.940;12.840;2023-02-13T14:34:04;7.13;;;6.17;;
19049;SDS011;9657;45.940;12.840;2023-02-13T14:36:33;8.27;;;5.80;;
19049;SDS011;9657;45.940;12.840;2023-02-13T14:39:04;9.20;;;6.53;;
19049;SDS011;9657;45.940;12.840;2023-02-13T14:41:44;10.67;;;7.40;;
19049;SDS011;9657;45.940;12.840;2023-02-13T14:44:24;9.90;;;7.03;;
19049;SDS011;9657;45.940;12.840;2023-02-13T14:46:56;10.10;;;6.43;;
19049;SDS011;9657;45.940;12.840;2023-02-13T14:49:26;9.80;;;6.60;;
19049;SDS011;9657;45.940;12.840;2023-02-13T14:51:55;10.00;;;7.10;;
19049;SDS011;9657;45.940;12.840;2023-02-13T14:54:25;8.83;;;6.33;;
19049;SDS011;9657;45.940;12.840;2023-02-13T14:57:00;8.87;;;6.33;;
19049;SDS011;9657;45.940;12.840;2023-02-13T14:59:34;8.30;;;7.07;;
19049;SDS011;9657;45.940;12.840;2023-02-13T15:02:08;11.27;;;7.53;;
19049;SDS011;9657;45.940;12.840;2023-02-13T15:04:44;8.93;;;6.90;;
19049;SDS011;9657;45.940;12.840;2023-02-13T15:07:15;9.37;;;7.07;;
19049;SDS011;9657;45.940;12.840;2023-02-13T15:09:47;10.67;;;7.73;;
19049;SDS011;9657;45.940;12.840;2023-02-13T15:12:28;8.27;;;6.67;;
19049;SDS011;9657;45.940;12.840;2023-02-13T15:14:58;8.13;;;6.87;;
19049;SDS011;9657;45.940;12.840;2023-02-13T15:17:26;9.70;;;6.93;;
19049;SDS011;9657;45.940;12.840;2023-02-13T15:20:05;8.80;;;6.70;;
19049;SDS011;9657;45.940;12.840;2023-02-13T15:22:44;7.43;;;6.30;;
19049;SDS011;9657;45.940;12.840;2023-02-13T15:25:19;8.77;;;6.17;;
19049;SDS011;9657;45.940;12.840;2023-02-13T15:27:50;9.97;;;6.87;;